Time;durP1;ratioP1;P1;durP2;ratioP2;P2;SDS_P1;SDS_P2;PMS_P1;PMS_P2;Temp;Humidity;BMP_temperature;BMP_pressure;BME280_temperature;BME280_humidity;BME280_pressure;Samples;Min_cycle;Max_cycle;Signal;HPM_P1;HPM_P2
2023/03/30 00:00:22;;;;;;;1.00;0.60;;;;;;;;;;108781;1257;58388;-46
2023/03/30 00:02:52;;;;;;;2.10;0.70;;;;;;;;;;108828;1260;57275;-45
2023/03/30 00:05:22;;;;;;;3.30;0.50;;;;;;;;;;108681;1258;61508;-45
2023/03/30 00:07:50;;;;;;;1.40;0.40;;;;;;;;;;108827;1257;57684;-46
2023/03/30 00:10:22;;;;;;;0.70;0.40;;;;;;;;;;108814;1257;60866;-46
2023/03/30 00:12:52;;;;;;;0.80;0.30;;;;;;;;;;108798;1257;57990;-45
2023/03/30 00:15:20;;;;;;;1.90;0.40;;;;;;;;;;108824;1258;58144;-45
2023/03/30 00:17:50;;;;;;;2.40;0.40;;;;;;;;;;108734;1259;60164;-44
2023/03/30 00:20:20;;;;;;;0.80;0.40;;;;;;;;;;106530;1258;59624;-47
2023/03/30 00:22:48;;;;;;;1.20;0.40;;;;;;;;;;108801;1257;61220;-45
2023/03/30 00:25:17;;;;;;;1.30;0.50;;;;;;;;;;108851;1257;57495;-46
2023/03/30 00:27:45;;;;;;;1.00;0.40;;;;;;;;;;106752;1261;59643;-47
2023/03/30 00:30:15;;;;;;;0.80;0.40;;;;;;;;;;105068;1260;61414;-46
2023/03/30 00:32:43;;;;;;;0.80;0.50;;;;;;;;;;108807;1257;57971;-46
2023/03/30 00:35:12;;;;;;;0.90;0.50;;;;;;;;;;105911;1260;60957;-45
2023/03/30 00:37:44;;;;;;;1.20;0.40;;;;;;;;;;105218;1264;59721;-47
2023/03/30 00:40:13;;;;;;;1.00;0.40;;;;;;;;;;108866;1257;57272;-45
2023/03/30 00:42:46;;;;;;;0.70;0.40;;;;;;;;;;108105;1260;60065;-46
2023/03/30 00:45:18;;;;;;;1.00;0.40;;;;;;;;;;105234;1263;59548;-45
2023/03/30 00:47:56;;;;;;;0.60;0.40;;;;;;;;;;104975;1258;60626;-46
2023/03/30 00:50:26;;;;;;;0.70;0.40;;;;;;;;;;108820;1257;57500;-48
2023/03/30 00:52:54;;;;;;;1.90;0.50;;;;;;;;;;108166;1260;59653;-48
2023/03/30 00:55:22;;;;;;;1.00;0.50;;;;;;;;;;104837;1261;61923;-47
2023/03/30 00:57:51;;;;;;;0.60;0.30;;;;;;;;;;105156;1257;59708;-44
2023/03/30 01:00:19;;;;;;;0.70;0.30;;;;;;;;;;108704;1259;61109;-46
2023/03/30 01:02:49;;;;;;;2.30;0.30;;;;;;;;;;106629;1263;59679;-45
2023/03/30 01:05:19;;;;;;;0.70;0.30;;;;;;;;;;105258;1258;59738;-45
2023/03/30 01:07:48;;;;;;;0.50;0.30;;;;;;;;;;108704;1259;61061;-47
2023/03/30 01:10:18;;;;;;;0.40;0.20;;;;;;;;;;108177;1257;57552;-45
2023/03/30 01:12:46;;;;;;;1.30;0.30;;;;;;;;;;105552;1267;62424;-46
2023/03/30 01:15:15;;;;;;;1.30;0.40;;;;;;;;;;105109;1260;59727;-46
2023/03/30 01:17:51;;;;;;;0.90;0.30;;;;;;;;;;105033;1263;59539;-45
2023/03/30 01:20:35;;;;;;;1.70;0.40;;;;;;;;;;106252;1257;61042;-45
2023/03/30 01:23:07;;;;;;;0.50;0.40;;;;;;;;;;105091;1260;59605;-47
2023/03/30 01:25:50;;;;;;;1.10;0.30;;;;;;;;;;105203;1262;60775;-44
2023/03/30 01:28:27;;;;;;;1.60;0.30;;;;;;;;;;105084;1264;59647;-45
2023/03/30 01:31:04;;;;;;;0.90;0.40;;;;;;;;;;105243;1261;59532;-45
2023/03/30 01:33:46;;;;;;;1.50;0.60;;;;;;;;;;106277;1259;61471;-46
2023/03/30 01:36:34;;;;;;;1.00;0.40;;;;;;;;;;105045;1257;59724;-45
2023/03/30 01:39:21;;;;;;;1.40;0.50;;;;;;;;;;105250;1258;61020;-45
2023/03/30 01:41:59;;;;;;;0.80;0.40;;;;;;;;;;105179;1264;59740;-43
2023/03/30 01:44:30;;;;;;;4.70;0.60;;;;;;;;;;108775;1258;57364;-44
2023/03/30 01:47:04;;;;;;;0.90;0.40;;;;;;;;;;108776;1259;61110;-43
2023/03/30 01:49:44;;;;;;;1.20;0.60;;;;;;;;;;105467;1265;60207;-42
2023/03/30 01:52:14;;;;;;;0.60;0.30;;;;;;;;;;105531;1260;60597;-45
2023/03/30 01:54:44;;;;;;;0.90;0.30;;;;;;;;;;108854;1257;57658;-44
2023/03/30 01:57:16;;;;;;;0.70;0.40;;;;;;;;;;106733;1257;59730;-42
2023/03/30 01:59:51;;;;;;;0.50;0.30;;;;;;;;;;105805;1260;61678;-45
2023/03/30 02:02:20;;;;;;;1.90;0.50;;;;;;;;;;104990;1262;59541;-44
2023/03/30 02:04:52;;;;;;;0.60;0.40;;;;;;;;;;108214;1257;60509;-43
2023/03/30 02:07:21;;;;;;;0.60;0.30;;;;;;;;;;108731;1257;57893;-46
2023/03/30 02:09:52;;;;;;;0.50;0.30;;;;;;;;;;108758;1259;57485;-45
2023/03/30 02:12:20;;;;;;;0.90;0.40;;;;;;;;;;108748;1257;61153;-46
2023/03/30 02:14:48;;;;;;;0.60;0.40;;;;;;;;;;107221;1260;59609;-44
2023/03/30 02:17:18;;;;;;;1.10;0.40;;;;;;;;;;104976;1259;60610;-45
2023/03/30 02:19:46;;;;;;;1.70;0.40;;;;;;;;;;104976;1258;59810;-46
2023/03/30 02:22:22;;;;;;;0.60;0.40;;;;;;;;;;105013;1258;59611;-45
2023/03/30 02:24:53;;;;;;;0.80;0.40;;;;;;;;;;108826;1257;60191;-45
2023/03/30 02:27:21;;;;;;;1.80;0.40;;;;;;;;;;108689;1258;57574;-45
2023/03/30 02:29:51;;;;;;;2.60;0.50;;;;;;;;;;108721;1257;59478;-45
2023/03/30 02:32:24;;;;;;;0.60;0.40;;;;;;;;;;108715;1257;57728;-45
2023/03/30 02:35:07;;;;;;;2.50;0.80;;;;;;;;;;108870;1257;57694;-45
2023/03/30 02:37:49;;;;;;;0.90;0.30;;;;;;;;;;109198;1253;60055;-45
2023/03/30 02:40:28;;;;;;;2.00;0.40;;;;;;;;;;108919;1254;58372;-45
2023/03/30 02:42:58;;;;;;;0.40;0.20;;;;;;;;;;108837;1253;60463;-44
2023/03/30 02:45:27;;;;;;;1.00;0.40;;;;;;;;;;105302;1259;60066;-45
2023/03/30 02:48:00;;;;;;;1.70;0.40;;;;;;;;;;109033;1253;57580;-45
2023/03/30 02:50:32;;;;;;;1.10;0.30;;;;;;;;;;108927;1253;61132;-43
2023/03/30 02:53:05;;;;;;;1.90;0.70;;;;;;;;;;109169;1253;57634;-43
2023/03/30 02:55:35;;;;;;;;;;;;;;;;;;108887;1255;59981;-44
2023/03/30 02:58:22;;;;;;;0.90;0.40;;;;;;;;;;108902;1256;57820;-43
2023/03/30 03:01:16;;;;;;;1.00;0.50;;;;;;;;;;108955;1255;57275;-43
2023/03/30 03:03:51;;;;;;;1.10;0.50;;;;;;;;;;108887;1255;61263;-43
2023/03/30 03:06:19;;;;;;;0.70;0.50;;;;;;;;;;108891;1256;58169;-44
2023/03/30 03:08:53;;;;;;;3.70;0.50;;;;;;;;;;108837;1257;61095;-43
2023/03/30 03:11:24;;;;;;;1.10;0.50;;;;;;;;;;108427;1256;60845;-44
2023/03/30 03:13:54;;;;;;;2.60;0.40;;;;;;;;;;108976;1256;58448;-45
2023/03/30 03:16:22;;;;;;;0.90;0.50;;;;;;;;;;108868;1256;62167;-46
2023/03/30 03:19:03;;;;;;;1.80;0.40;;;;;;;;;;107821;1257;60533;-44
2023/03/30 03:21:31;;;;;;;0.90;0.40;;;;;;;;;;107740;1255;60797;-45
2023/03/30 03:23:59;;;;;;;1.00;0.40;;;;;;;;;;109005;1256;58556;-45
2023/03/30 03:26:40;;;;;;;1.20;0.30;;;;;;;;;;108686;1256;59082;-45
2023/03/30 03:29:08;;;;;;;0.80;0.40;;;;;;;;;;105462;1259;62102;-43
2023/03/30 03:31:36;;;;;;;1.00;0.30;;;;;;;;;;106387;1260;60269;-42
2023/03/30 03:34:06;;;;;;;4.30;0.40;;;;;;;;;;108879;1256;59535;-45
2023/03/30 03:36:55;;;;;;;1.40;0.40;;;;;;;;;;108871;1256;58456;-44
2023/03/30 03:39:31;;;;;;;0.80;0.40;;;;;;;;;;105852;1256;60512;-46
2023/03/30 03:42:06;;;;;;;1.10;0.40;;;;;;;;;;105934;1256;62137;-42
2023/03/30 03:44:39;;;;;;;2.00;0.40;;;;;;;;;;105248;1260;60422;-42
2023/03/30 03:47:07;;;;;;;0.90;0.70;;;;;;;;;;105264;1260;60438;-41
2023/03/30 03:49:35;;;;;;;1.40;0.50;;;;;;;;;;105830;1256;60327;-43
2023/03/30 03:52:05;;;;;;;1.40;0.60;;;;;;;;;;108845;1255;58103;-43
2023/03/30 03:54:33;;;;;;;2.10;0.60;;;;;;;;;;109061;1254;61331;-42
2023/03/30 03:57:06;;;;;;;0.90;0.50;;;;;;;;;;105706;1253;61039;-42
2023/03/30 03:59:35;;;;;;;1.90;0.60;;;;;;;;;;105466;1254;60711;-43
2023/03/30 04:02:04;;;;;;;2.10;0.80;;;;;;;;;;108855;1253;58283;-47
2023/03/30 04:04:32;;;;;;;1.60;0.70;;;;;;;;;;108900;1254;58746;-43
2023/03/30 04:07:00;;;;;;;1.90;0.70;;;;;;;;;;106300;1256;62254;-45
2023/03/30 04:09:28;;;;;;;1.80;0.70;;;;;;;;;;105838;1257;60428;-44
2023/03/30 04:12:20;;;;;;;0.90;0.60;;;;;;;;;;105348;1254;60545;-46
2023/03/30 04:15:12;;;;;;;1.70;0.70;;;;;;;;;;105371;1256;60402;-42
2023/03/30 04:18:00;;;;;;;2.10;0.80;;;;;;;;;;105392;1254;60512;-43
2023/03/30 04:20:49;;;;;;;3.30;0.70;;;;;;;;;;108983;1253;60782;-44
2023/03/30 04:23:38;;;;;;;2.10;0.60;;;;;;;;;;108858;1254;58633;-41
2023/03/30 04:26:18;;;;;;;2.10;0.60;;;;;;;;;;107169;1258;60987;-43
2023/03/30 04:28:55;;;;;;;0.80;0.50;;;;;;;;;;104915;1257;60527;-43
2023/03/30 04:31:23;;;;;;;1.50;0.60;;;;;;;;;;109085;1253;58682;-45
2023/03/30 04:34:20;;;;;;;2.70;0.80;;;;;;;;;;104968;1254;61189;-45
2023/03/30 04:37:03;;;;;;;2.60;0.60;;;;;;;;;;105228;1256;60479;-43
2023/03/30 04:39:45;;;;;;;2.10;0.70;;;;;;;;;;104922;1253;60533;-44
2023/03/30 04:42:38;;;;;;;2.40;0.90;;;;;;;;;;104811;1259;60524;-43
2023/03/30 04:45:25;;;;;;;1.20;0.70;;;;;;;;;;105110;1257;60460;-41
2023/03/30 04:47:55;;;;;;;2.70;1.10;;;;;;;;;;109267;1253;62323;-46
2023/03/30 04:50:24;;;;;;;2.10;0.80;;;;;;;;;;108408;1253;60510;-42
2023/03/30 04:53:11;;;;;;;1.40;0.70;;;;;;;;;;105104;1253;61136;-41
2023/03/30 04:55:58;;;;;;;3.20;0.70;;;;;;;;;;105155;1254;60475;-41
2023/03/30 04:58:27;;;;;;;5.40;0.90;;;;;;;;;;105025;1253;60508;-44
2023/03/30 05:01:23;;;;;;;1.50;0.80;;;;;;;;;;105154;1253;60898;-45
2023/03/30 05:03:57;;;;;;;5.40;1.20;;;;;;;;;;105119;1253;60588;-44
2023/03/30 05:06:33;;;;;;;1.00;0.60;;;;;;;;;;107044;1256;60607;-42
2023/03/30 05:09:33;;;;;;;1.20;0.70;;;;;;;;;;105051;1262;60437;-43
2023/03/30 05:12:25;;;;;;;1.50;0.70;;;;;;;;;;105130;1253;60427;-45
2023/03/30 05:15:13;;;;;;;1.00;0.70;;;;;;;;;;105005;1254;61903;-44
2023/03/30 05:18:00;;;;;;;2.70;0.80;;;;;;;;;;104742;1258;60354;-45
2023/03/30 05:20:48;;;;;;;1.70;0.60;;;;;;;;;;104925;1257;60648;-46
2023/03/30 05:23:39;;;;;;;4.20;0.60;;;;;;;;;;107134;1252;60947;-46
2023/03/30 05:26:27;;;;;;;1.70;0.70;;;;;;;;;;105094;1252;60726;-46
2023/03/30 05:29:27;;;;;;;1.60;0.70;;;;;;;;;;109060;1251;61194;-45
2023/03/30 05:32:01;;;;;;;1.60;0.80;;;;;;;;;;109276;1252;58172;-43
2023/03/30 05:34:47;;;;;;;2.90;0.80;;;;;;;;;;109181;1252;59781;-43
2023/03/30 05:37:35;;;;;;;2.60;0.70;;;;;;;;;;109265;1252;58210;-44
2023/03/30 05:40:32;;;;;;;3.10;0.70;;;;;;;;;;108774;1253;58620;-44
2023/03/30 05:43:16;;;;;;;1.90;0.80;;;;;;;;;;109126;1253;62195;-44
2023/03/30 05:45:57;;;;;;;1.30;0.70;;;;;;;;;;109215;1252;59077;-44
2023/03/30 05:48:33;;;;;;;1.20;0.70;;;;;;;;;;109119;1254;60890;-46
2023/03/30 05:51:27;;;;;;;1.90;0.70;;;;;;;;;;109119;1253;58607;-45
2023/03/30 05:54:14;;;;;;;1.10;0.60;;;;;;;;;;109090;1253;58799;-47
2023/03/30 05:57:00;;;;;;;3.50;0.80;;;;;;;;;;109089;1254;62029;-48
2023/03/30 05:59:37;;;;;;;1.30;0.70;;;;;;;;;;109197;1253;58372;-47
2023/03/30 06:02:35;;;;;;;1.20;0.60;;;;;;;;;;109068;1254;60193;-46
2023/03/30 06:05:07;;;;;;;1.10;0.50;;;;;;;;;;109198;1252;58772;-46
2023/03/30 06:07:36;;;;;;;2.00;0.70;;;;;;;;;;108978;1254;58271;-48
2023/03/30 06:10:07;;;;;;;3.60;0.60;;;;;;;;;;109023;1253;61009;-48
2023/03/30 06:12:35;;;;;;;3.20;0.70;;;;;;;;;;109105;1253;58585;-48
2023/03/30 06:15:07;;;;;;;1.50;0.70;;;;;;;;;;106607;1253;61045;-48
2023/03/30 06:17:48;;;;;;;1.30;0.60;;;;;;;;;;105638;1255;60463;-45
2023/03/30 06:20:20;;;;;;;2.80;0.60;;;;;;;;;;107714;1252;58591;-47
2023/03/30 06:22:50;;;;;;;2.00;0.60;;;;;;;;;;105482;1257;61919;-52
2023/03/30 06:25:22;;;;;;;1.70;0.60;;;;;;;;;;105479;1254;60695;-47
2023/03/30 06:27:51;;;;;;;1.10;0.60;;;;;;;;;;105814;1253;60335;-46
2023/03/30 06:30:19;;;;;;;1.60;0.60;;;;;;;;;;105481;1253;60467;-48
2023/03/30 06:32:49;;;;;;;1.00;0.50;;;;;;;;;;105380;1253;60539;-49
2023/03/30 06:35:29;;;;;;;1.00;0.60;;;;;;;;;;105566;1253;61899;-47
2023/03/30 06:37:58;;;;;;;1.50;0.40;;;;;;;;;;109142;1251;58441;-49
2023/03/30 06:40:26;;;;;;;1.40;0.40;;;;;;;;;;109169;1250;60427;-48
2023/03/30 06:42:55;;;;;;;0.90;0.50;;;;;;;;;;109310;1250;59314;-47
2023/03/30 06:45:48;;;;;;;1.60;0.40;;;;;;;;;;106331;1251;60496;-52
2023/03/30 06:48:18;;;;;;;2.10;0.40;;;;;;;;;;105211;1256;62187;-48
2023/03/30 06:50:49;;;;;;;1.50;0.40;;;;;;;;;;105324;1250;60473;-47
2023/03/30 06:53:23;;;;;;;0.90;0.30;;;;;;;;;;108561;1250;60791;-48
2023/03/30 06:55:52;;;;;;;0.90;0.40;;;;;;;;;;106158;1256;60636;-44
2023/03/30 06:58:26;;;;;;;1.30;0.40;;;;;;;;;;105564;1254;60320;-44
2023/03/30 07:00:55;;;;;;;2.10;0.30;;;;;;;;;;109439;1249;61906;-49
2023/03/30 07:03:42;;;;;;;1.00;0.30;;;;;;;;;;107070;1253;60524;-45
2023/03/30 07:06:36;;;;;;;1.30;0.30;;;;;;;;;;105600;1254;60517;-48
2023/03/30 07:09:05;;;;;;;0.50;0.30;;;;;;;;;;109270;1250;58595;-51
2023/03/30 07:11:39;;;;;;;0.30;0.20;;;;;;;;;;108523;1251;60447;-47
2023/03/30 07:14:13;;;;;;;1.70;0.20;;;;;;;;;;105917;1250;62137;-49
2023/03/30 07:16:42;;;;;;;0.90;0.30;;;;;;;;;;105917;1253;60512;-47
2023/03/30 07:19:11;;;;;;;3.40;0.30;;;;;;;;;;109319;1249;60902;-49
2023/03/30 07:21:39;;;;;;;0.40;0.30;;;;;;;;;;107022;1251;60421;-48
2023/03/30 07:24:10;;;;;;;0.50;0.20;;;;;;;;;;109311;1250;58521;-48
2023/03/30 07:26:40;;;;;;;2.00;0.30;;;;;;;;;;109229;1250;62116;-47
2023/03/30 07:29:09;;;;;;;0.60;0.30;;;;;;;;;;109226;1251;58516;-49
2023/03/30 07:31:39;;;;;;;0.40;0.20;;;;;;;;;;105948;1253;61111;-47
2023/03/30 07:34:10;;;;;;;0.50;0.20;;;;;;;;;;109405;1250;58627;-48
2023/03/30 07:36:42;;;;;;;0.40;0.20;;;;;;;;;;109348;1250;58109;-48
2023/03/30 07:39:15;;;;;;;0.80;0.20;;;;;;;;;;108147;1250;60888;-44
2023/03/30 07:41:44;;;;;;;2.70;0.30;;;;;;;;;;105644;1253;60520;-52
2023/03/30 07:44:12;;;;;;;0.40;0.20;;;;;;;;;;105631;1254;60461;-48
2023/03/30 07:46:43;;;;;;;0.40;0.20;;;;;;;;;;105625;1250;60525;-46
2023/03/30 07:49:15;;;;;;;1.40;0.30;;;;;;;;;;107159;1250;60507;-47
2023/03/30 07:51:51;;;;;;;1.00;0.20;;;;;;;;;;105689;1256;62163;-49
2023/03/30 07:54:22;;;;;;;0.90;0.30;;;;;;;;;;105575;1256;60985;-46
2023/03/30 07:57:20;;;;;;;0.90;0.50;;;;;;;;;;105805;1254;60792;-45
2023/03/30 07:59:49;;;;;;;1.10;0.30;;;;;;;;;;109375;1250;58558;-46
2023/03/30 08:02:28;;;;;;;2.60;0.30;;;;;;;;;;109069;1250;59344;-50
2023/03/30 08:04:58;;;;;;;0.50;0.30;;;;;;;;;;105588;1256;62146;-49
2023/03/30 08:07:36;;;;;;;1.40;0.40;;;;;;;;;;105750;1250;60441;-47
2023/03/30 08:10:11;;;;;;;1.40;0.40;;;;;;;;;;109324;1250;60327;-47
2023/03/30 08:12:46;;;;;;;0.80;0.40;;;;;;;;;;107693;1250;60543;-49
2023/03/30 08:15:14;;;;;;;1.20;0.40;;;;;;;;;;105992;1251;60420;-46
2023/03/30 08:17:43;;;;;;;0.40;0.30;;;;;;;;;;105614;1254;62117;-47
2023/03/30 08:20:16;;;;;;;0.50;0.30;;;;;;;;;;105674;1253;60421;-49
2023/03/30 08:22:46;;;;;;;0.50;0.40;;;;;;;;;;105569;1251;60532;-45
2023/03/30 08:25:14;;;;;;;2.30;0.60;;;;;;;;;;105671;1251;60528;-46
2023/03/30 08:27:43;;;;;;;0.70;0.40;;;;;;;;;;109321;1249;58424;-48
2023/03/30 08:30:12;;;;;;;0.40;0.30;;;;;;;;;;109396;1250;61281;-45
2023/03/30 08:32:40;;;;;;;0.60;0.30;;;;;;;;;;109454;1250;58250;-44
2023/03/30 08:35:08;;;;;;;0.50;0.30;;;;;;;;;;109448;1250;60488;-45
2023/03/30 08:37:36;;;;;;;3.30;0.30;;;;;;;;;;108186;1250;60454;-49
2023/03/30 08:40:07;;;;;;;1.20;0.30;;;;;;;;;;105668;1250;60791;-47
2023/03/30 08:42:35;;;;;;;0.60;0.30;;;;;;;;;;109416;1249;63001;-49
2023/03/30 08:45:07;;;;;;;1.80;0.30;;;;;;;;;;109416;1250;58569;-46
2023/03/30 08:47:37;;;;;;;0.40;0.30;;;;;;;;;;109421;1253;60527;-46
2023/03/30 08:50:07;;;;;;;0.60;0.20;;;;;;;;;;109346;1250;59133;-46
2023/03/30 08:52:36;;;;;;;0.50;0.30;;;;;;;;;;106007;1251;60998;-46
2023/03/30 08:55:04;;;;;;;0.40;0.20;;;;;;;;;;109195;1250;61832;-45
2023/03/30 08:58:01;;;;;;;5.10;0.60;;;;;;;;;;109351;1251;58249;-46
2023/03/30 09:00:31;;;;;;;1.00;0.30;;;;;;;;;;109256;1250;60878;-49
2023/03/30 09:03:14;;;;;;;0.40;0.30;;;;;;;;;;108602;1250;60538;-47
2023/03/30 09:05:46;;;;;;;2.40;0.60;;;;;;;;;;106560;1251;60420;-49
2023/03/30 09:08:14;;;;;;;0.40;0.30;;;;;;;;;;108447;1251;61963;-49
2023/03/30 09:10:44;;;;;;;0.70;0.40;;;;;;;;;;105973;1255;60287;-47
2023/03/30 09:13:15;;;;;;;0.90;0.20;;;;;;;;;;105653;1250;60454;-45
2023/03/30 09:15:53;;;;;;;1.30;0.40;;;;;;;;;;105597;1250;60428;-45
2023/03/30 09:18:30;;;;;;;1.20;0.30;;;;;;;;;;105696;1251;60429;-47
2023/03/30 09:20:59;;;;;;;1.60;0.30;;;;;;;;;;105620;1253;62012;-46
2023/03/30 09:23:30;;;;;;;0.50;0.30;;;;;;;;;;105807;1255;60367;-44
2023/03/30 09:26:20;;;;;;;1.40;0.30;;;;;;;;;;105528;1251;60409;-48
2023/03/30 09:29:00;;;;;;;1.90;0.40;;;;;;;;;;105656;1255;59143;-49
2023/03/30 09:31:32;;;;;;;1.90;0.30;;;;;;;;;;105695;1253;60505;-47
2023/03/30 09:34:03;;;;;;;0.90;0.40;;;;;;;;;;109384;1250;61335;-49
2023/03/30 09:36:39;;;;;;;0.70;0.30;;;;;;;;;;106884;1255;60429;-47
2023/03/30 09:39:26;;;;;;;0.80;0.40;;;;;;;;;;107375;1252;60800;-45
2023/03/30 09:42:00;;;;;;;0.50;0.40;;;;;;;;;;105711;1253;60294;-46
2023/03/30 09:44:49;;;;;;;2.70;1.30;;;;;;;;;;105559;1250;60557;-52
2023/03/30 09:47:27;;;;;;;0.70;0.40;;;;;;;;;;106324;1254;64331;-49
2023/03/30 09:50:08;;;;;;;0.70;0.40;;;;;;;;;;105458;1256;60429;-51
2023/03/30 09:52:37;;;;;;;0.50;0.30;;;;;;;;;;105325;1251;60359;-49
2023/03/30 09:55:20;;;;;;;1.00;0.30;;;;;;;;;;105972;1256;61069;-51
2023/03/30 09:57:52;;;;;;;0.60;0.30;;;;;;;;;;105675;1251;60312;-51
2023/03/30 10:00:22;;;;;;;0.70;0.40;;;;;;;;;;105901;1251;62102;-48
2023/03/30 10:03:20;;;;;;;0.50;0.30;;;;;;;;;;105754;1254;60322;-52
2023/03/30 10:06:06;;;;;;;0.70;0.40;;;;;;;;;;105739;1253;60425;-50
2023/03/30 10:08:53;;;;;;;0.50;0.30;;;;;;;;;;106229;1250;60491;-50
2023/03/30 10:11:33;;;;;;;2.20;0.30;;;;;;;;;;105790;1250;60456;-49
2023/03/30 10:14:01;;;;;;;0.90;0.30;;;;;;;;;;106119;1251;61900;-48
2023/03/30 10:16:33;;;;;;;0.40;0.30;;;;;;;;;;105824;1253;59818;-46
2023/03/30 10:19:03;;;;;;;1.60;0.30;;;;;;;;;;106375;1256;60984;-47
2023/03/30 10:21:35;;;;;;;0.50;0.30;;;;;;;;;;107308;1252;60278;-47
2023/03/30 10:24:08;;;;;;;0.40;0.20;;;;;;;;;;108023;1253;60416;-50
2023/03/30 10:26:36;;;;;;;0.40;0.20;;;;;;;;;;105731;1251;62027;-49
2023/03/30 10:29:06;;;;;;;0.70;0.20;;;;;;;;;;107912;1253;60553;-48
2023/03/30 10:31:35;;;;;;;0.50;0.30;;;;;;;;;;105991;1255;60414;-48
2023/03/30 10:34:04;;;;;;;0.90;0.20;;;;;;;;;;105724;1253;60371;-49
2023/03/30 10:36:33;;;;;;;1.30;0.30;;;;;;;;;;109109;1250;58985;-48
2023/03/30 10:39:03;;;;;;;0.50;0.20;;;;;;;;;;105795;1251;62147;-50
2023/03/30 10:41:31;;;;;;;0.40;0.20;;;;;;;;;;105661;1255;61358;-50
2023/03/30 10:44:19;;;;;;;0.30;0.20;;;;;;;;;;105919;1256;60444;-47
2023/03/30 10:46:47;;;;;;;2.30;0.30;;;;;;;;;;105869;1252;60530;-49
2023/03/30 10:49:34;;;;;;;0.70;0.30;;;;;;;;;;106321;1255;60352;-50
2023/03/30 10:52:13;;;;;;;0.30;0.20;;;;;;;;;;109371;1250;62157;-47
2023/03/30 10:54:42;;;;;;;0.80;0.30;;;;;;;;;;108292;1256;60373;-48
2023/03/30 10:57:18;;;;;;;0.50;0.20;;;;;;;;;;106594;1256;60395;-52
2023/03/30 10:59:53;;;;;;;0.60;0.20;;;;;;;;;;106376;1256;60443;-52
2023/03/30 11:02:40;;;;;;;0.50;0.20;;;;;;;;;;105744;1249;60543;-48
2023/03/30 11:05:14;;;;;;;0.50;0.20;;;;;;;;;;106380;1250;62049;-47
2023/03/30 11:07:45;;;;;;;1.00;0.20;;;;;;;;;;105797;1254;60361;-47
2023/03/30 11:13:23;;;;;;;0.40;0.20;;;;;;;;;;102576;1293;601167;-47
2023/03/30 11:15:52;;;;;;;1.00;0.30;;;;;;;;;;104812;1267;59113;-47
2023/03/30 11:18:43;;;;;;;1.10;0.30;;;;;;;;;;108464;1263;57247;-49
2023/03/30 11:21:34;;;;;;;1.40;0.20;;;;;;;;;;108359;1263;59353;-50
2023/03/30 11:24:13;;;;;;;0.30;0.20;;;;;;;;;;108447;1263;57790;-48
2023/03/30 11:26:47;;;;;;;;;;;;;;;;;;104845;1263;164057;-46
2023/03/30 11:29:21;;;;;;;0.50;0.30;;;;;;;;;;104960;1263;58993;-48
2023/03/30 11:31:58;;;;;;;0.40;0.20;;;;;;;;;;108662;1263;58629;-47
2023/03/30 11:34:44;;;;;;;0.30;0.20;;;;;;;;;;108663;1262;61012;-47
2023/03/30 11:37:16;;;;;;;0.50;0.20;;;;;;;;;;108705;1263;56954;-47
2023/03/30 11:39:46;;;;;;;0.60;0.20;;;;;;;;;;108527;1264;61006;-48
2023/03/30 11:42:20;;;;;;;0.30;0.20;;;;;;;;;;105907;1266;59541;-45
2023/03/30 11:44:50;;;;;;;0.70;0.20;;;;;;;;;;104928;1262;59537;-50
2023/03/30 11:47:24;;;;;;;0.60;0.30;;;;;;;;;;108664;1263;60217;-50
2023/03/30 11:50:11;;;;;;;0.40;0.20;;;;;;;;;;108472;1266;58024;-49
2023/03/30 11:52:39;;;;;;;0.30;0.20;;;;;;;;;;108631;1262;60784;-49
2023/03/30 11:55:22;;;;;;;0.40;0.20;;;;;;;;;;108620;1263;57444;-49
2023/03/30 11:57:57;;;;;;;0.90;0.20;;;;;;;;;;108473;1262;58098;-49
2023/03/30 12:00:45;;;;;;;0.50;0.20;;;;;;;;;;108727;1262;60129;-52
2023/03/30 12:03:16;;;;;;;0.70;0.20;;;;;;;;;;108646;1263;57754;-48
2023/03/30 12:05:49;;;;;;;0.40;0.20;;;;;;;;;;108713;1263;59828;-47
2023/03/30 12:08:17;;;;;;;0.30;0.20;;;;;;;;;;105632;1265;59503;-46
2023/03/30 12:10:46;;;;;;;0.50;0.20;;;;;;;;;;104855;1263;59522;-48
2023/03/30 12:13:15;;;;;;;0.30;0.20;;;;;;;;;;106162;1266;61258;-49
2023/03/30 12:15:55;;;;;;;0.20;0.10;;;;;;;;;;104927;1263;59621;-49
2023/03/30 12:18:29;;;;;;;1.20;0.20;;;;;;;;;;104922;1261;60453;-49
2023/03/30 12:21:04;;;;;;;0.30;0.20;;;;;;;;;;104952;1264;60618;-49
2023/03/30 12:23:44;;;;;;;0.60;0.20;;;;;;;;;;105031;1263;60235;-51
2023/03/30 12:26:17;;;;;;;0.30;0.20;;;;;;;;;;104869;1265;61172;-47
2023/03/30 12:28:51;;;;;;;2.70;0.10;;;;;;;;;;105313;1259;59506;-50
2023/03/30 12:31:46;;;;;;;0.40;0.20;;;;;;;;;;105330;1259;59640;-48
2023/03/30 12:34:14;;;;;;;1.70;0.20;;;;;;;;;;105411;1260;59701;-49
2023/03/30 12:36:45;;;;;;;1.00;0.30;;;;;;;;;;105970;1260;59521;-49
2023/03/30 12:39:13;;;;;;;0.40;0.20;;;;;;;;;;105386;1257;61278;-48
2023/03/30 12:41:43;;;;;;;0.60;0.20;;;;;;;;;;106163;1258;59666;-51
2023/03/30 12:44:30;;;;;;;0.40;0.20;;;;;;;;;;105549;1254;61135;-48
2023/03/30 12:47:18;;;;;;;0.40;0.20;;;;;;;;;;107394;1254;59717;-47
2023/03/30 12:49:57;;;;;;;0.80;0.20;;;;;;;;;;105406;1259;59627;-48
2023/03/30 12:52:34;;;;;;;0.40;0.20;;;;;;;;;;105999;1259;60575;-47
2023/03/30 12:55:10;;;;;;;0.60;0.30;;;;;;;;;;105423;1258;59539;-48
2023/03/30 12:57:41;;;;;;;0.30;0.20;;;;;;;;;;105506;1259;60765;-46
2023/03/30 13:00:28;;;;;;;0.50;0.30;;;;;;;;;;105562;1259;59659;-47
2023/03/30 13:03:06;;;;;;;0.50;0.20;;;;;;;;;;105519;1257;59787;-50
2023/03/30 13:05:37;;;;;;;1.10;0.30;;;;;;;;;;106527;1254;60126;-50
2023/03/30 13:08:06;;;;;;;0.70;0.30;;;;;;;;;;105258;1255;59666;-48
2023/03/30 13:10:36;;;;;;;1.50;0.40;;;;;;;;;;105680;1254;60716;-48
2023/03/30 13:13:05;;;;;;;1.10;0.40;;;;;;;;;;105470;1259;59631;-47
2023/03/30 13:15:50;;;;;;;0.70;0.40;;;;;;;;;;105948;1256;59535;-51
2023/03/30 13:18:22;;;;;;;0.70;0.40;;;;;;;;;;105496;1256;61450;-48
2023/03/30 13:20:53;;;;;;;0.40;0.30;;;;;;;;;;105423;1260;59627;-51
2023/03/30 13:23:23;;;;;;;0.60;0.40;;;;;;;;;;105484;1259;60789;-46
2023/03/30 13:26:06;;;;;;;0.90;0.30;;;;;;;;;;106197;1254;59603;-48
2023/03/30 13:28:38;;;;;;;0.60;0.30;;;;;;;;;;105541;1254;59704;-49
2023/03/30 13:31:25;;;;;;;0.80;0.40;;;;;;;;;;105391;1254;61315;-46
2023/03/30 13:34:10;;;;;;;1.20;0.30;;;;;;;;;;105425;1260;59574;-48
2023/03/30 13:36:44;;;;;;;0.70;0.40;;;;;;;;;;105465;1257;60701;-50
2023/03/30 13:39:22;;;;;;;0.60;0.30;;;;;;;;;;105606;1254;59779;-49
2023/03/30 13:42:02;;;;;;;1.60;0.40;;;;;;;;;;105866;1257;59602;-51
2023/03/30 13:44:48;;;;;;;0.60;0.30;;;;;;;;;;105433;1254;61355;-51
2023/03/30 13:47:22;;;;;;;0.50;0.30;;;;;;;;;;104907;1254;59828;-50
2023/03/30 13:49:53;;;;;;;0.70;0.30;;;;;;;;;;104897;1254;59981;-48
2023/03/30 13:52:25;;;;;;;0.60;0.30;;;;;;;;;;105470;1259;59595;-49
2023/03/30 13:54:54;;;;;;;1.00;0.40;;;;;;;;;;109032;1254;58409;-51
2023/03/30 13:57:23;;;;;;;0.60;0.30;;;;;;;;;;105986;1256;61321;-48
2023/03/30 13:59:53;;;;;;;1.40;0.40;;;;;;;;;;105788;1254;59006;-49
2023/03/30 14:02:21;;;;;;;0.40;0.30;;;;;;;;;;105575;1259;60615;-47
2023/03/30 14:05:08;;;;;;;2.70;0.30;;;;;;;;;;105563;1251;59729;-48
2023/03/30 14:07:39;;;;;;;0.60;0.30;;;;;;;;;;105670;1251;59622;-51
2023/03/30 14:10:11;;;;;;;0.60;0.40;;;;;;;;;;105678;1251;61188;-49
2023/03/30 14:12:40;;;;;;;0.60;0.30;;;;;;;;;;105651;1250;59814;-49
2023/03/30 14:15:26;;;;;;;0.60;0.30;;;;;;;;;;106746;1253;59621;-48
2023/03/30 14:17:59;;;;;;;0.70;0.30;;;;;;;;;;105768;1251;59753;-49
2023/03/30 14:20:41;;;;;;;0.80;0.30;;;;;;;;;;107958;1251;59529;-48
2023/03/30 14:23:14;;;;;;;0.50;0.30;;;;;;;;;;105425;1251;61084;-51
2023/03/30 14:25:42;;;;;;;0.50;0.30;;;;;;;;;;105428;1256;58325;-48
2023/03/30 14:28:16;;;;;;;1.30;0.40;;;;;;;;;;109397;1251;60750;-51
2023/03/30 14:30:54;;;;;;;0.70;0.40;;;;;;;;;;109349;1251;57552;-48
2023/03/30 14:33:22;;;;;;;4.30;0.40;;;;;;;;;;109433;1250;57782;-47
2023/03/30 14:35:55;;;;;;;1.90;0.30;;;;;;;;;;109253;1250;61012;-48
2023/03/30 14:38:33;;;;;;;0.90;0.40;;;;;;;;;;109419;1251;57555;-49
2023/03/30 14:41:02;;;;;;;1.50;0.40;;;;;;;;;;109360;1251;60451;-51
2023/03/30 14:43:30;;;;;;;0.80;0.40;;;;;;;;;;109297;1250;57676;-48
2023/03/30 14:45:59;;;;;;;0.70;0.40;;;;;;;;;;109320;1250;58525;-50
2023/03/30 14:48:27;;;;;;;0.60;0.30;;;;;;;;;;109437;1251;61110;-47
2023/03/30 14:51:08;;;;;;;0.90;0.50;;;;;;;;;;109384;1251;58583;-46
2023/03/30 14:53:36;;;;;;;0.70;0.40;;;;;;;;;;109338;1250;60503;-48
2023/03/30 14:56:05;;;;;;;0.90;0.60;;;;;;;;;;109240;1251;58027;-47
2023/03/30 14:58:35;;;;;;;0.90;0.50;;;;;;;;;;109351;1251;57630;-48
2023/03/30 15:01:05;;;;;;;3.10;0.60;;;;;;;;;;109398;1251;61414;-50
2023/03/30 15:03:38;;;;;;;1.00;0.40;;;;;;;;;;109319;1250;57745;-47
2023/03/30 15:06:07;;;;;;;2.00;0.40;;;;;;;;;;109266;1251;60798;-47
2023/03/30 15:08:38;;;;;;;0.60;0.40;;;;;;;;;;109442;1251;57346;-48
2023/03/30 15:11:07;;;;;;;0.80;0.30;;;;;;;;;;109216;1251;57644;-47
2023/03/30 15:13:37;;;;;;;0.50;0.30;;;;;;;;;;108880;1251;60168;-46
2023/03/30 15:16:05;;;;;;;2.40;0.40;;;;;;;;;;106257;1256;59957;-51
2023/03/30 15:18:37;;;;;;;0.60;0.40;;;;;;;;;;104915;1257;60486;-48